Time;durP1;ratioP1;P1;durP2;ratioP2;P2;SDS_P1;SDS_P2;PMS_P1;PMS_P2;Temp;Humidity;BMP_temperature;BMP_pressure;BME280_temperature;BME280_humidity;BME280_pressure;Samples;Min_cycle;Max_cycle;Signal;HPM_P1;HPM_P2
2021/01/25 00:00:46;;;;;;;12.68;3.08;;;;;;;9.59;73.26;99205.41;4934418;29;20062;-71
2021/01/25 00:03:12;;;;;;;8.25;3.00;;;;;;;9.63;73.34;99209.78;4934262;29;20067;-71
2021/01/25 00:05:37;;;;;;;16.05;3.20;;;;;;;9.68;73.16;99210.75;4934641;29;20449;-71
2021/01/25 00:08:04;;;;;;;9.18;3.38;;;;;;;9.78;73.87;99191.19;4934215;29;20039;-72
2021/01/25 00:10:30;;;;;;;11.27;3.20;;;;;;;9.93;74.63;99195.75;4934206;29;20024;-72
2021/01/25 00:12:55;;;;;;;13.40;3.28;;;;;;;10.12;73.82;99190.09;4934436;29;20046;-72
2021/01/25 00:15:21;;;;;;;12.43;3.80;;;;;;;10.20;73.08;99185.97;4934175;29;20027;-72
2021/01/25 00:17:46;;;;;;;14.55;3.30;;;;;;;10.25;73.17;99182.59;4933932;29;20028;-71
2021/01/25 00:20:13;;;;;;;13.00;3.60;;;;;;;10.32;73.05;99190.47;4933876;29;20028;-72
2021/01/25 00:22:38;;;;;;;15.15;3.78;;;;;;;10.26;72.89;99174.88;4933614;29;20482;-71
2021/01/25 00:25:04;;;;;;;12.63;3.30;;;;;;;10.28;73.08;99173.19;4934181;29;20027;-72
2021/01/25 00:27:30;;;;;;;14.02;3.53;;;;;;;10.03;73.04;99122.88;4933797;29;20035;-72
2021/01/25 00:29:55;;;;;;;12.73;3.72;;;;;;;10.26;73.24;99161.97;4947974;29;20035;-72
2021/01/25 00:32:20;;;;;;;8.98;2.95;;;;;;;10.10;73.66;99145.38;4933954;29;20023;-73
2021/01/25 00:34:46;;;;;;;10.15;3.47;;;;;;;9.86;74.65;99107.16;4933748;29;20020;-73
2021/01/25 00:37:11;;;;;;;10.35;3.88;;;;;;;9.88;75.05;99110.59;4933710;29;20027;-75
2021/01/25 00:39:37;;;;;;;12.15;3.53;;;;;;;10.06;75.18;99135.00;4934104;29;20059;-68
2021/01/25 00:42:02;;;;;;;12.35;3.22;;;;;;;10.13;75.45;99123.91;4934063;29;20161;-69
2021/01/25 00:44:28;;;;;;;10.77;2.67;;;;;;;10.21;75.20;99122.34;4933818;29;20079;-70
2021/01/25 00:46:53;;;;;;;12.93;3.25;;;;;;;10.36;74.60;99129.50;4933868;29;20483;-71
2021/01/25 00:49:19;;;;;;;11.25;3.13;;;;;;;10.42;74.36;99128.72;4933236;29;20086;-72
2021/01/25 00:51:44;;;;;;;10.15;3.28;;;;;;;10.35;74.18;99122.56;4963394;28;20082;-71
2021/01/25 00:54:10;;;;;;;11.07;3.05;;;;;;;10.41;73.85;99130.44;4933440;29;20035;-71
2021/01/25 00:56:35;;;;;;;11.40;2.97;;;;;;;10.19;73.79;99072.44;4933762;29;20028;-71
2021/01/25 00:59:01;;;;;;;14.57;4.20;;;;;;;10.40;73.67;99118.38;4933585;29;20032;-71
2021/01/25 01:01:26;;;;;;;13.75;3.63;;;;;;;10.39;73.88;99121.78;4933318;29;20043;-71
2021/01/25 01:03:51;;;;;;;10.63;3.10;;;;;;;10.32;74.19;99117.38;4933774;29;20036;-71
2021/01/25 01:06:17;;;;;;;12.48;3.25;;;;;;;10.26;74.34;99115.56;4929384;29;20028;-72
2021/01/25 01:08:42;;;;;;;16.40;4.20;;;;;;;10.23;74.09;99102.63;4932126;29;20031;-70
2021/01/25 01:11:08;;;;;;;14.50;4.22;;;;;;;10.17;74.31;99092.19;4933723;29;20402;-70
2021/01/25 01:13:33;;;;;;;11.55;4.30;;;;;;;9.98;74.58;99057.50;4933266;29;20031;-70
2021/01/25 01:15:59;;;;;;;16.42;3.78;;;;;;;10.11;74.97;99082.63;4947994;28;20473;-70
2021/01/25 01:18:24;;;;;;;9.98;3.05;;;;;;;9.88;75.46;99033.25;4931542;29;20024;-70
2021/01/25 01:20:50;;;;;;;15.25;3.60;;;;;;;10.01;76.20;99060.13;4937633;28;20031;-67
2021/01/25 01:23:15;;;;;;;11.77;3.55;;;;;;;9.88;76.77;99054.78;4942606;28;20043;-70
2021/01/25 01:25:41;;;;;;;13.48;3.20;;;;;;;9.94;76.41;99060.88;4930054;29;20036;-68
2021/01/25 01:28:06;;;;;;;12.90;3.35;;;;;;;9.70;76.63;99028.69;4972328;28;20050;-72
2021/01/25 01:30:31;;;;;;;10.35;3.42;;;;;;;9.95;76.91;99065.19;4946895;28;20417;-69
2021/01/25 01:32:57;;;;;;;12.07;4.20;;;;;;;10.01;77.25;99065.28;4941260;28;20030;-73
2021/01/25 01:35:22;;;;;;;9.80;2.88;;;;;;;10.11;77.17;99056.00;4947538;29;20081;-73
2021/01/25 01:37:48;;;;;;;14.07;3.63;;;;;;;10.20;76.83;99049.28;4947186;28;20040;-70
2021/01/25 01:40:14;;;;;;;11.25;3.03;;;;;;;10.22;76.63;99032.94;4951560;29;20035;-69
2021/01/25 01:42:40;;;;;;;12.40;2.95;;;;;;;10.33;76.19;99031.38;4966851;28;20116;-68
2021/01/25 01:45:08;;;;;;;7.38;2.60;;;;;;;10.43;75.79;99020.41;4953100;28;20390;-71
2021/01/25 01:47:35;;;;;;;8.93;2.92;;;;;;;10.41;75.58;99004.03;4952770;28;20126;-68
2021/01/25 01:50:01;;;;;;;7.43;1.77;;;;;;;10.50;75.48;99003.28;4952711;28;20409;-68
2021/01/25 01:52:26;;;;;;;12.40;2.58;;;;;;;10.55;75.15;98995.59;4956351;28;20035;-67
2021/01/25 01:54:57;;;;;;;13.52;2.33;;;;;;;10.57;74.89;98987.03;4956314;28;20033;-68
2021/01/25 01:57:22;;;;;;;9.18;3.15;;;;;;;10.65;74.63;98987.13;4956233;28;20032;-68
2021/01/25 01:59:49;;;;;;;10.20;2.58;;;;;;;10.71;74.14;98976.88;4956033;28;20030;-68
2021/01/25 02:02:14;;;;;;;11.43;2.58;;;;;;;10.78;73.92;98978.69;4955944;28;20035;-68
2021/01/25 02:04:40;;;;;;;13.32;3.42;;;;;;;10.77;73.40;98947.72;4955945;28;20089;-67
2021/01/25 02:07:08;;;;;;;8.18;2.53;;;;;;;10.67;72.92;98920.91;4956193;28;20031;-70
2021/01/25 02:09:39;;;;;;;6.93;1.95;;;;;;;10.56;72.37;98912.19;4956045;28;20035;-68
2021/01/25 02:12:06;;;;;;;6.38;1.98;;;;;;;10.83;71.87;98929.72;4956419;28;20187;-70
2021/01/25 02:14:32;;;;;;;5.72;1.77;;;;;;;10.97;71.81;98958.25;4956016;28;20062;-68
2021/01/25 02:16:58;;;;;;;10.40;3.13;;;;;;;11.05;71.73;98976.41;4955832;28;20030;-68
2021/01/25 02:19:35;;;;;;;9.10;2.42;;;;;;;11.15;70.79;98981.69;4955709;28;20035;-68
2021/01/25 02:22:36;;;;;;;6.95;2.30;;;;;;;11.14;70.97;98966.16;4955441;29;20055;-68
2021/01/25 02:25:07;;;;;;;8.75;2.25;;;;;;;11.16;70.28;98967.94;4972788;28;20122;-67
2021/01/25 02:27:42;;;;;;;5.90;1.65;;;;;;;11.14;69.62;98967.03;4972498;28;20051;-71
2021/01/25 02:30:09;;;;;;;7.53;1.65;;;;;;;11.16;68.85;98967.94;4972652;28;20026;-70
2021/01/25 02:32:37;;;;;;;7.13;1.40;;;;;;;11.13;68.62;98944.66;4972351;28;20094;-68
2021/01/25 02:35:07;;;;;;;4.07;1.40;;;;;;;11.29;67.89;98955.13;4972585;28;20034;-67
2021/01/25 02:37:34;;;;;;;4.68;1.35;;;;;;;11.29;67.70;98949.94;4972656;28;20528;-68
2021/01/25 02:40:01;;;;;;;5.65;1.30;;;;;;;11.26;67.79;98943.03;4972499;28;20086;-70
2021/01/25 02:42:27;;;;;;;6.15;1.73;;;;;;;11.24;67.40;98928.38;4972343;28;20098;-68
2021/01/25 02:44:54;;;;;;;5.38;1.70;;;;;;;11.24;67.55;98933.53;4972261;28;20027;-73
2021/01/25 02:47:21;;;;;;;4.75;1.42;;;;;;;11.26;67.54;98926.69;4972394;28;20053;-68
2021/01/25 02:49:47;;;;;;;7.03;1.77;;;;;;;11.29;67.62;98924.13;4972273;28;20026;-68
2021/01/25 02:52:14;;;;;;;6.18;1.65;;;;;;;11.29;67.37;98924.13;4972158;28;20505;-69
2021/01/25 02:54:41;;;;;;;5.10;1.48;;;;;;;11.31;66.99;98917.25;4972063;28;20031;-68
2021/01/25 02:57:11;;;;;;;7.22;1.52;;;;;;;11.11;67.13;98889.50;4972269;28;20037;-67
2021/01/25 02:59:38;;;;;;;5.15;1.50;;;;;;;11.38;67.04;98915.59;4958929;28;20487;-69
2021/01/25 03:02:07;;;;;;;4.70;1.52;;;;;;;11.35;67.32;98906.09;4938183;28;20031;-68
2021/01/25 03:04:37;;;;;;;7.00;1.85;;;;;;;11.04;67.70;98861.03;4935743;29;20035;-68
2021/01/25 03:07:04;;;;;;;6.80;2.63;;;;;;;11.03;68.25;98865.34;4935628;29;20039;-68
2021/01/25 03:09:30;;;;;;;13.18;5.47;;;;;;;11.20;68.89;98895.63;4949825;29;20505;-72
2021/01/25 03:12:01;;;;;;;6.18;3.03;;;;;;;11.15;68.96;98890.41;4949557;29;20122;-69
2021/01/25 03:14:27;;;;;;;10.93;8.38;;;;;;;11.06;69.49;98885.19;4935846;29;20059;-69
2021/01/25 03:16:52;;;;;;;5.50;2.20;;;;;;;11.05;69.42;98875.69;4935554;29;20078;-69
2021/01/25 03:19:18;;;;;;;8.38;1.83;;;;;;;11.08;69.56;98880.88;4935279;29;20074;-67
2021/01/25 03:21:48;;;;;;;5.78;1.50;;;;;;;10.97;69.60;98867.88;4935308;29;20031;-69
2021/01/25 03:24:14;;;;;;;9.48;1.85;;;;;;;11.09;69.33;98872.28;4935631;29;20027;-68
2021/01/25 03:26:39;;;;;;;5.60;1.50;;;;;;;10.92;69.46;98826.53;4935366;29;20036;-69
2021/01/25 03:29:05;;;;;;;7.05;1.90;;;;;;;11.06;69.89;98857.63;4935274;29;20108;-71
2021/01/25 03:31:31;;;;;;;6.18;1.60;;;;;;;11.11;69.67;98832.69;4934757;29;20028;-67
2021/01/25 03:33:56;;;;;;;6.68;1.45;;;;;;;10.99;70.22;98815.41;4931667;28;20035;-67
2021/01/25 03:36:22;;;;;;;4.20;2.10;;;;;;;11.11;70.15;98812.03;4935389;29;20086;-67
2021/01/25 03:38:47;;;;;;;4.10;1.30;;;;;;;11.16;70.50;98810.38;4948419;29;20047;-68
2021/01/25 03:41:13;;;;;;;7.85;1.77;;;;;;;11.21;70.19;98801.78;4935421;29;20031;-67
2021/01/25 03:43:38;;;;;;;4.43;1.30;;;;;;;11.19;70.66;98798.31;4935169;28;20031;-68
2021/01/25 03:46:04;;;;;;;5.05;1.58;;;;;;;11.20;70.65;98798.31;4934980;29;20459;-70
2021/01/25 03:48:29;;;;;;;5.60;1.60;;;;;;;11.23;70.60;98789.75;4934890;29;20063;-68
2021/01/25 03:50:54;;;;;;;4.90;1.38;;;;;;;11.27;70.38;98781.16;4934867;29;20034;-70
2021/01/25 03:53:20;;;;;;;9.35;1.45;;;;;;;11.32;70.46;98774.31;4935401;29;20115;-67
2021/01/25 03:55:46;;;;;;;5.18;1.35;;;;;;;11.09;70.44;98728.53;4934694;29;20060;-70
2021/01/25 03:58:11;;;;;;;5.10;1.30;;;;;;;11.30;70.83;98778.59;4934756;29;20506;-67
2021/01/25 04:00:37;;;;;;;6.95;1.50;;;;;;;11.26;71.04;98769.09;4934552;29;20020;-68
2021/01/25 04:03:03;;;;;;;4.53;1.35;;;;;;;11.23;71.73;98776.84;4934561;29;20138;-68
2021/01/25 04:05:28;;;;;;;5.30;1.42;;;;;;;11.15;72.41;98800.00;4934593;29;20468;-68
2021/01/25 04:07:54;;;;;;;8.55;1.90;;;;;;;11.09;73.02;98803.44;4934939;29;20034;-68
2021/01/25 04:10:19;;;;;;;6.28;1.75;;;;;;;11.08;73.47;98821.47;4934766;28;20043;-69
2021/01/25 04:12:45;;;;;;;7.07;1.90;;;;;;;11.06;74.11;98836.97;4934516;28;20027;-70
2021/01/25 04:15:11;;;;;;;8.20;2.03;;;;;;;10.99;74.28;98843.81;4934472;29;20397;-66
2021/01/25 04:17:37;;;;;;;5.97;1.73;;;;;;;10.98;74.76;98848.97;4934518;29;20035;-69
2021/01/25 04:20:05;;;;;;;10.02;2.08;;;;;;;10.95;74.94;98857.53;4934332;29;20031;-68
2021/01/25 04:22:30;;;;;;;9.25;1.98;;;;;;;10.92;75.32;98867.81;4934016;29;20027;-68
2021/01/25 04:24:56;;;;;;;11.90;3.33;;;;;;;10.93;75.32;98869.56;4934924;29;20086;-68
2021/01/25 04:27:21;;;;;;;8.77;2.50;;;;;;;10.95;75.53;98856.66;4934304;28;20055;-69
2021/01/25 04:29:47;;;;;;;7.75;2.35;;;;;;;10.92;76.43;98856.66;4934301;29;20560;-69
2021/01/25 04:32:12;;;;;;;10.38;1.98;;;;;;;10.93;76.75;98858.34;4934336;29;20038;-74
2021/01/25 04:34:38;;;;;;;11.57;2.30;;;;;;;10.88;76.93;98854.88;4933254;29;20031;-68
2021/01/25 04:37:04;;;;;;;8.45;2.20;;;;;;;10.93;76.42;98848.91;4934489;29;20027;-70
2021/01/25 04:39:30;;;;;;;10.32;2.63;;;;;;;10.89;76.49;98839.41;4948052;29;20055;-68
2021/01/25 04:41:55;;;;;;;11.48;2.55;;;;;;;11.08;76.42;98862.78;4934191;29;20435;-71
2021/01/25 04:44:24;;;;;;;9.93;2.60;;;;;;;10.80;75.99;98805.75;4933728;28;20036;-68
2021/01/25 04:46:50;;;;;;;10.60;2.33;;;;;;;11.10;75.64;98858.50;4915145;29;20059;-69
2021/01/25 04:49:18;;;;;;;8.02;2.63;;;;;;;11.19;75.80;98860.31;4915135;29;20762;-69
2021/01/25 04:51:44;;;;;;;14.00;2.97;;;;;;;11.19;75.55;98866.38;4915473;29;20036;-69
2021/01/25 04:54:10;;;;;;;10.02;2.85;;;;;;;11.15;75.70;98855.13;4915365;29;20123;-67
2021/01/25 04:56:36;;;;;;;4.93;1.85;;;;;;;11.19;74.88;98856.03;4949448;29;20110;-71
2021/01/25 04:59:05;;;;;;;9.38;2.53;;;;;;;11.15;74.74;98844.81;4953108;28;20391;-69
2021/01/25 05:01:31;;;;;;;8.27;1.73;;;;;;;11.19;73.96;98831.91;4941646;28;20083;-69
2021/01/25 05:03:56;;;;;;;9.90;2.58;;;;;;;11.15;74.15;98839.63;4933978;29;20039;-69
2021/01/25 05:06:22;;;;;;;12.23;2.40;;;;;;;11.22;74.08;98853.47;4934577;29;20092;-69
2021/01/25 05:08:48;;;;;;;11.32;3.28;;;;;;;11.23;73.74;98844.88;4934093;29;20110;-69
2021/01/25 05:11:14;;;;;;;13.25;2.90;;;;;;;11.24;73.51;98846.59;4942488;29;20116;-68
2021/01/25 05:13:40;;;;;;;12.70;2.53;;;;;;;11.26;73.01;98839.69;4953155;28;20167;-67
2021/01/25 05:16:20;;;;;;;11.00;2.20;;;;;;;11.26;73.14;98825.94;4947440;28;20048;-70
2021/01/25 05:18:46;;;;;;;11.35;2.83;;;;;;;11.31;72.97;98832.00;4934112;29;20032;-69
2021/01/25 05:21:12;;;;;;;9.55;3.22;;;;;;;11.31;73.22;98834.59;4934131;29;20046;-69
2021/01/25 05:23:40;;;;;;;15.20;3.20;;;;;;;11.14;73.51;98793.13;4934151;29;20031;-69
2021/01/25 05:26:09;;;;;;;12.63;2.85;;;;;;;11.09;73.41;98779.31;4940456;29;20379;-69
2021/01/25 05:28:41;;;;;;;14.25;3.50;;;;;;;11.30;73.56;98833.72;4956685;28;20417;-69
2021/01/25 05:31:36;;;;;;;11.02;2.25;;;;;;;11.29;74.05;98831.09;4956212;28;20066;-69
2021/01/25 05:34:01;;;;;;;9.90;2.90;;;;;;;11.20;75.16;98821.56;4973696;28;20041;-69
2021/01/25 05:36:30;;;;;;;11.30;2.72;;;;;;;11.09;76.47;98821.50;4973640;28;20031;-67
2021/01/25 05:38:55;;;;;;;10.77;2.35;;;;;;;10.98;77.29;98811.09;4973690;28;20046;-71
2021/01/25 05:41:22;;;;;;;11.60;2.35;;;;;;;10.99;77.50;98828.31;4973481;28;20101;-69
2021/01/25 05:43:50;;;;;;;11.20;3.20;;;;;;;10.94;78.42;98808.44;4973278;28;20043;-67
2021/01/25 05:46:18;;;;;;;14.43;2.65;;;;;;;10.97;78.84;98824.84;4973448;28;20027;-69
2021/01/25 05:48:54;;;;;;;15.90;3.38;;;;;;;10.90;79.42;98807.56;4973514;28;20517;-67
2021/01/25 05:51:20;;;;;;;16.33;3.90;;;;;;;10.89;80.10;98810.13;4973150;28;20552;-67
2021/01/25 05:53:47;;;;;;;13.48;3.53;;;;;;;10.83;80.68;98809.22;4973215;28;20504;-67
2021/01/25 05:56:15;;;;;;;12.63;2.80;;;;;;;10.77;80.54;98805.75;4972904;28;20437;-68
2021/01/25 05:58:41;;;;;;;12.60;2.75;;;;;;;10.60;81.12;98792.66;4973234;28;20046;-68
2021/01/25 06:01:07;;;;;;;13.40;4.00;;;;;;;10.59;81.80;98812.47;4957118;28;20031;-69
2021/01/25 06:03:38;;;;;;;11.25;3.90;;;;;;;10.59;83.00;98819.31;4973047;28;20075;-68
2021/01/25 06:06:07;;;;;;;11.60;2.80;;;;;;;10.51;83.88;98837.31;4967119;28;20092;-67
2021/01/25 06:08:48;;;;;;;12.57;2.95;;;;;;;10.48;85.11;98830.41;4964071;28;20030;-68
2021/01/25 06:11:16;;;;;;;10.30;2.92;;;;;;;10.20;85.53;98782.75;4947127;28;20090;-67
2021/01/25 06:13:52;;;;;;;21.02;4.63;;;;;;;10.08;86.66;98780.91;4944493;28;20035;-67
2021/01/25 06:16:21;;;;;;;18.67;3.60;;;;;;;10.24;87.65;98830.09;4948408;29;20433;-68
2021/01/25 06:18:47;;;;;;;10.98;2.80;;;;;;;10.14;88.78;98822.25;4949921;28;20528;-70
2021/01/25 06:21:24;;;;;;;13.85;3.17;;;;;;;10.11;89.96;98824.78;4945159;28;20071;-70
2021/01/25 06:23:52;;;;;;;12.60;2.95;;;;;;;9.94;91.00;98824.56;4952138;29;20031;-69
2021/01/25 06:26:17;;;;;;;13.15;3.10;;;;;;;9.98;91.58;98839.25;4955725;28;20039;-72
2021/01/25 06:28:46;;;;;;;13.90;3.25;;;;;;;9.89;92.36;98841.69;4955489;28;20023;-67
2021/01/25 06:31:16;;;;;;;10.07;3.20;;;;;;;9.82;93.03;98827.84;4955447;28;20110;-67
2021/01/25 06:33:46;;;;;;;8.00;3.45;;;;;;;9.82;93.22;98832.13;4954299;28;20035;-67
2021/01/25 06:36:15;;;;;;;11.55;2.67;;;;;;;9.80;93.30;98839.84;4955489;28;20038;-69
2021/01/25 06:38:42;;;;;;;8.48;2.30;;;;;;;9.76;93.71;98829.47;4970341;28;20551;-68
2021/01/25 06:41:12;;;;;;;11.35;2.95;;;;;;;9.52;94.04;98776.75;4955187;28;20437;-69
2021/01/25 06:43:49;;;;;;;9.23;2.75;;;;;;;9.75;94.55;98818.28;4955079;28;20023;-71
2021/01/25 06:46:20;;;;;;;13.85;2.42;;;;;;;9.73;94.80;98801.94;4955340;28;20034;-68
2021/01/25 06:48:51;;;;;;;10.02;2.40;;;;;;;9.75;94.58;98818.28;4955518;28;20037;-69
2021/01/25 06:51:19;;;;;;;12.75;2.65;;;;;;;9.76;94.59;98796.84;4985653;28;20047;-69
2021/01/25 06:53:49;;;;;;;12.73;2.45;;;;;;;9.79;94.50;98790.84;4955373;28;20552;-69
2021/01/25 06:56:14;;;;;;;18.60;3.63;;;;;;;9.75;94.26;98783.94;4955148;28;20474;-69
2021/01/25 06:58:46;;;;;;;11.23;2.40;;;;;;;9.72;94.20;98779.63;4955135;28;20078;-70
2021/01/25 07:01:12;;;;;;;14.07;2.63;;;;;;;9.84;94.18;98795.25;4955355;28;20176;-69
2021/01/25 07:03:57;;;;;;;11.55;2.72;;;;;;;9.90;93.72;98785.84;4954742;28;20084;-69
2021/01/25 07:06:35;;;;;;;5.75;2.08;;;;;;;9.95;93.37;98779.88;4954853;28;20078;-69
2021/01/25 07:09:06;;;;;;;10.07;2.50;;;;;;;9.88;92.99;98760.03;4971919;28;20070;-73
2021/01/25 07:11:34;;;;;;;12.95;2.53;;;;;;;10.02;92.83;98766.22;4971657;28;20035;-69
2021/01/25 07:13:59;;;;;;;9.05;3.78;;;;;;;10.01;92.81;98749.03;4955520;28;20038;-74
2021/01/25 07:16:26;;;;;;;12.75;2.15;;;;;;;10.07;93.09;98749.94;4971704;28;20034;-69
2021/01/25 07:18:52;;;;;;;8.07;2.53;;;;;;;10.06;92.99;98737.91;4971763;28;20154;-71
2021/01/25 07:21:19;;;;;;;9.82;2.55;;;;;;;10.10;93.04;98719.91;4971466;28;20030;-68
2021/01/25 07:23:46;;;;;;;10.73;3.63;;;;;;;10.11;93.30;98723.38;4957336;28;20047;-69
2021/01/25 07:26:13;;;;;;;5.28;1.90;;;;;;;10.13;92.76;98709.63;4936415;29;20093;-69
2021/01/25 07:28:39;;;;;;;8.88;1.75;;;;;;;10.03;92.75;98680.31;4952240;29;20075;-69
2021/01/25 07:31:05;;;;;;;10.82;2.35;;;;;;;10.08;92.34;98680.38;4936166;29;20039;-69
2021/01/25 07:33:31;;;;;;;8.45;2.33;;;;;;;10.23;92.00;98697.69;4952458;29;20453;-69
2021/01/25 07:35:58;;;;;;;6.47;1.70;;;;;;;10.29;91.26;98714.94;4951871;29;20031;-67
2021/01/25 07:38:27;;;;;;;8.85;2.28;;;;;;;10.37;90.30;98718.50;4951679;29;20510;-69
2021/01/25 07:40:57;;;;;;;5.95;1.75;;;;;;;10.45;89.27;98723.72;4937093;29;20044;-69
2021/01/25 07:43:25;;;;;;;7.35;2.03;;;;;;;10.31;88.67;98695.19;4935125;29;20090;-69
2021/01/25 07:45:51;;;;;;;13.13;2.08;;;;;;;10.51;87.37;98701.41;4935010;29;20035;-71
2021/01/25 07:48:17;;;;;;;5.30;2.00;;;;;;;10.62;87.35;98721.28;4934618;29;20119;-68
2021/01/25 07:50:53;;;;;;;9.05;2.90;;;;;;;10.71;84.87;98733.41;4934914;29;20486;-69
2021/01/25 07:53:18;;;;;;;6.70;1.80;;;;;;;10.84;84.21;98728.34;4935035;29;20027;-69
2021/01/25 07:55:47;;;;;;;5.53;1.85;;;;;;;10.91;83.59;98726.66;4935001;29;20032;-69
2021/01/25 07:58:13;;;;;;;5.50;1.88;;;;;;;10.98;83.51;98732.75;4935007;29;20035;-71
2021/01/25 08:00:40;;;;;;;9.60;2.60;;;;;;;10.93;83.14;98716.34;4934812;29;20031;-70
2021/01/25 08:03:28;;;;;;;7.88;2.33;;;;;;;10.95;83.17;98720.69;4934699;29;20032;-68
2021/01/25 08:06:03;;;;;;;9.43;2.55;;;;;;;10.63;83.63;98663.66;4934726;29;20482;-69
2021/01/25 08:08:31;;;;;;;9.43;2.70;;;;;;;10.96;83.33;98730.16;4933412;29;20039;-68
2021/01/25 08:10:57;;;;;;;6.10;1.80;;;;;;;10.99;82.88;98725.03;4934575;29;20059;-70
2021/01/25 08:13:42;;;;;;;6.47;2.28;;;;;;;10.80;83.24;98689.59;4934635;28;20028;-73
2021/01/25 08:16:21;;;;;;;7.07;2.60;;;;;;;10.79;83.06;98685.28;4934772;28;20105;-69
2021/01/25 08:19:05;;;;;;;21.55;18.25;;;;;;;11.04;83.35;98735.38;4948434;28;20050;-69
2021/01/25 08:22:05;;;;;;;110.22;99.35;;;;;;;11.07;83.03;98735.41;4934435;29;20023;-69
2021/01/25 08:24:31;;;;;;;;;;;;;;;11.07;82.73;98737.13;4970772;28;20134;-70
2021/01/25 08:27:08;;;;;;;53.55;37.30;;;;;;;11.04;83.15;98744.84;4970523;28;19914;-67
2021/01/25 08:29:34;;;;;;;13.43;5.88;;;;;;;11.06;83.03;98736.25;4923101;28;20050;-68
2021/01/25 08:32:21;;;;;;;8.68;3.58;;;;;;;11.07;82.56;98735.41;4970269;28;20039;-71
2021/01/25 08:34:57;;;;;;;10.57;3.17;;;;;;;11.11;82.33;98729.38;4970484;28;20149;-68
2021/01/25 08:37:32;;;;;;;11.25;3.40;;;;;;;11.16;82.52;98740.66;4970365;28;20109;-68
2021/01/25 08:39:57;;;;;;;7.82;3.35;;;;;;;11.19;82.08;98742.38;4970293;28;20426;-68
2021/01/25 08:42:25;;;;;;;7.85;3.22;;;;;;;11.25;81.13;98747.59;4970459;28;20146;-68
2021/01/25 08:45:01;;;;;;;6.93;2.47;;;;;;;11.33;79.60;98745.03;4970574;28;20476;-69
2021/01/25 08:47:29;;;;;;;5.85;2.17;;;;;;;11.41;78.53;98766.59;4970352;28;20051;-67
2021/01/25 08:49:55;;;;;;;8.45;2.20;;;;;;;11.42;77.57;98763.16;4970299;28;20041;-69
2021/01/25 08:52:22;;;;;;;9.50;3.35;;;;;;;11.49;76.89;98775.28;4954243;28;20505;-69
2021/01/25 08:54:48;;;;;;;5.35;1.77;;;;;;;11.59;75.04;98763.28;4970217;28;20429;-67
2021/01/25 08:57:31;;;;;;;11.98;4.60;;;;;;;11.38;75.90;98727.84;4986194;28;20046;-70
2021/01/25 09:00:17;;;;;;;6.63;2.28;;;;;;;11.36;75.48;98747.63;4970322;28;20099;-68
2021/01/25 09:02:44;;;;;;;4.80;1.10;;;;;;;11.38;75.05;98743.34;4937673;29;20032;-69
2021/01/25 09:05:12;;;;;;;4.10;1.50;;;;;;;11.69;75.31;98799.50;4937742;28;20032;-70
2021/01/25 09:07:37;;;;;;;4.85;1.40;;;;;;;11.70;75.34;98798.66;4937737;29;20042;-68
2021/01/25 09:10:04;;;;;;;7.20;1.50;;;;;;;11.74;74.47;98801.25;4938301;29;20032;-69
2021/01/25 09:12:30;;;;;;;3.50;1.08;;;;;;;11.74;73.91;98803.84;4937700;29;20122;-67
2021/01/25 09:14:55;;;;;;;4.63;2.15;;;;;;;11.74;74.14;98788.34;4937822;29;20534;-68
2021/01/25 09:17:22;;;;;;;5.53;1.60;;;;;;;11.84;74.11;98802.19;4936830;28;20032;-68
2021/01/25 09:19:48;;;;;;;5.47;1.98;;;;;;;11.89;73.35;98799.63;4937843;29;20042;-70
2021/01/25 09:22:14;;;;;;;4.43;1.67;;;;;;;11.68;72.51;98756.44;4937535;29;20405;-69
2021/01/25 09:24:40;;;;;;;6.13;1.48;;;;;;;11.95;72.12;98812.56;4937486;29;20035;-68
2021/01/25 09:27:06;;;;;;;6.40;1.80;;;;;;;12.01;71.75;98815.19;4937791;29;20047;-69
2021/01/25 09:29:31;;;;;;;4.75;1.27;;;;;;;12.03;71.98;98817.81;4937649;29;20483;-71
2021/01/25 09:31:57;;;;;;;3.40;1.60;;;;;;;12.05;71.44;98816.97;4951812;29;20486;-71
2021/01/25 09:34:24;;;;;;;3.83;1.77;;;;;;;11.92;71.73;98794.44;4956736;28;20482;-68
2021/01/25 09:36:52;;;;;;;7.47;4.55;;;;;;;12.19;70.69;98818.75;4956752;28;20457;-67
2021/01/25 09:39:18;;;;;;;6.22;4.22;;;;;;;12.17;70.89;98820.47;4950678;28;20055;-71
2021/01/25 09:41:46;;;;;;;3.60;1.35;;;;;;;12.24;70.71;98820.47;4948255;28;20547;-69
2021/01/25 09:44:16;;;;;;;5.30;1.35;;;;;;;12.19;70.65;98814.44;4947556;28;20056;-68
2021/01/25 09:46:42;;;;;;;5.07;1.88;;;;;;;12.07;70.05;98798.84;4950381;29;20421;-68
2021/01/25 09:49:11;;;;;;;6.32;1.77;;;;;;;12.10;70.63;98804.91;4948334;28;20032;-68
2021/01/25 09:51:36;;;;;;;3.80;1.33;;;;;;;12.35;68.96;98837.75;4945416;28;20032;-72
2021/01/25 09:54:03;;;;;;;4.20;1.52;;;;;;;12.30;70.03;98830.84;4946771;28;20046;-71
2021/01/25 09:56:28;;;;;;;7.38;2.47;;;;;;;12.34;69.39;98823.97;4946852;29;20027;-68
2021/01/25 09:58:54;;;;;;;6.95;2.58;;;;;;;12.40;69.62;98828.28;4945030;28;20032;-69
2021/01/25 10:01:20;;;;;;;6.78;2.75;;;;;;;12.43;69.71;98826.56;4956135;28;20122;-69
2021/01/25 10:03:47;;;;;;;5.20;1.92;;;;;;;12.21;70.04;98788.56;4955813;28;20023;-69
2021/01/25 10:06:13;;;;;;;4.93;1.90;;;;;;;12.47;69.09;98822.25;4950486;28;20450;-72
2021/01/25 10:08:38;;;;;;;6.25;2.88;;;;;;;12.57;69.26;98833.50;4959408;28;20077;-69
2021/01/25 10:11:05;;;;;;;9.63;4.97;;;;;;;12.63;69.11;98833.53;4946497;28;20054;-68
2021/01/25 10:13:31;;;;;;;9.10;5.10;;;;;;;12.68;68.25;98830.97;4945597;29;20450;-67
2021/01/25 10:15:56;;;;;;;11.50;6.22;;;;;;;12.69;68.66;98830.09;4945674;28;20073;-70
2021/01/25 10:18:22;;;;;;;6.30;2.85;;;;;;;12.55;67.94;98801.59;4946610;29;20023;-69
2021/01/25 10:20:47;;;;;;;5.03;2.60;;;;;;;12.75;68.00;98830.13;4945402;29;20051;-68
2021/01/25 10:23:13;;;;;;;3.35;1.70;;;;;;;12.81;67.73;98822.34;4945588;28;20034;-68
2021/01/25 10:25:38;;;;;;;5.72;1.70;;;;;;;12.66;68.15;98802.47;4943219;29;20039;-70
2021/01/25 10:28:04;;;;;;;3.67;1.70;;;;;;;12.85;67.90;98823.22;4943095;28;20031;-69
2021/01/25 10:30:30;;;;;;;4.47;1.30;;;;;;;12.94;67.26;98841.34;4936574;29;20027;-68
2021/01/25 10:32:56;;;;;;;3.97;1.60;;;;;;;12.94;68.06;98843.94;4936447;28;20031;-68
2021/01/25 10:35:23;;;;;;;6.00;1.90;;;;;;;12.93;67.83;98842.22;4936336;29;20036;-67
2021/01/25 10:37:48;;;;;;;6.15;1.90;;;;;;;12.99;68.21;98851.72;4936618;29;20106;-71
2021/01/25 10:40:14;;;;;;;3.80;1.90;;;;;;;13.03;68.43;98853.44;4936594;29;20654;-68
2021/01/25 10:42:41;;;;;;;6.38;2.08;;;;;;;13.09;67.40;98864.66;4936345;29;20482;-67
2021/01/25 10:45:07;;;;;;;4.30;2.65;;;;;;;12.86;67.06;98824.94;4936401;28;20035;-67
2021/01/25 10:47:32;;;;;;;23.65;21.25;;;;;;;13.14;66.97;98866.41;4935954;29;20035;-71
2021/01/25 10:49:58;;;;;;;15.68;13.15;;;;;;;13.16;66.84;98875.03;4940675;28;20478;-68
2021/01/25 10:52:23;;;;;;;9.80;7.18;;;;;;;13.13;66.39;98868.13;4941999;29;20058;-69
2021/01/25 10:54:49;;;;;;;4.20;2.63;;;;;;;13.19;66.81;98882.81;4955294;28;20024;-68
2021/01/25 10:57:14;;;;;;;3.65;2.17;;;;;;;13.19;67.68;98881.09;4955200;28;20030;-68
2021/01/25 10:59:40;;;;;;;5.45;2.50;;;;;;;13.17;66.33;98893.19;4941025;28;20023;-71
2021/01/25 11:02:06;;;;;;;4.20;2.80;;;;;;;13.22;61.10;98888.00;4935776;29;20040;-66
2021/01/25 11:04:32;;;;;;;6.00;2.97;;;;;;;13.14;58.40;98887.16;4935883;29;20088;-69
2021/01/25 11:06:57;;;;;;;5.80;2.30;;;;;;;13.05;57.76;98891.44;4936384;29;20062;-67
2021/01/25 11:09:23;;;;;;;5.90;2.97;;;;;;;12.97;59.49;98881.94;4938881;29;20031;-68
2021/01/25 11:11:50;;;;;;;5.55;2.03;;;;;;;12.91;60.31;98893.13;4936113;29;20035;-68
2021/01/25 11:14:16;;;;;;;6.22;2.22;;;;;;;12.77;59.85;98899.16;4942553;28;20079;-68
2021/01/25 11:16:42;;;;;;;5.30;1.70;;;;;;;12.71;59.96;98900.84;4940762;28;20032;-70
2021/01/25 11:19:08;;;;;;;4.13;2.25;;;;;;;12.59;62.49;98910.31;4935518;29;20043;-67
2021/01/25 11:21:34;;;;;;;4.45;2.08;;;;;;;12.47;63.32;98907.69;4934356;29;20111;-68
2021/01/25 11:23:59;;;;;;;4.30;2.20;;;;;;;12.34;65.24;98921.44;4934680;29;20114;-67
2021/01/25 11:26:27;;;;;;;4.70;2.40;;;;;;;12.11;66.46;98938.56;4935502;28;20023;-66
2021/01/25 11:28:52;;;;;;;5.50;2.17;;;;;;;11.71;68.29;98961.50;4946149;28;20545;-67
2021/01/25 11:31:18;;;;;;;3.22;1.50;;;;;;;10.97;70.49;98973.75;4954246;28;20031;-74
2021/01/25 11:33:43;;;;;;;3.90;1.63;;;;;;;10.20;74.82;98974.47;4949558;28;20083;-77